Dades meteomassalio
Diari Summary for Octubre 2, 2017 Units:  Metric    English   Both
« Previous Day
Next Day »
Diari Semanal Mensual Anual Personalitzat
  Maxima: Minima: Mijana:
Temperatura: -17.8 °C -9.8 °C -6.5 °C
Rosada: -17.8 °C -12.2 °C -10.1 °C
Humitat: Humidity % 49 % 67 %
Velocitat del vent: 0 km/h 0 km/h 14.3 km/h
Racha vent: 0 km/h - -
Vent:- - SSW
Pressio: 0 hPa 34635.4 hPa -
Pluja: 0 mm    
Historical Graphs
 
 
Tabular Data for Octubre 2, 2017
Time Temperature Dew Point Pressure Wind Wind Speed Wind Gust Humidity Rainfall Rate (Hourly) solar Conditions
-17.8 °C -17.8 °C 0 hPa Calm     Humidity % 0 mm SolarRadiationWatts/m^2 W/m2 Conditions
00:03 -7 °C -9.7 °C 34703.1 hPa SSW 26.9 km/h 26.9 km/h 73 % 0 mm 0.0 W/m2 CLR
00:08 -7.3 °C -10.2 °C 34703.1 hPa SW 9 km/h 9 km/h 72 % 0 mm 0.0 W/m2 CLR
00:13 -7.3 °C -10.1 °C 34693 hPa SSW 9 km/h 9 km/h 73 % 0 mm 0.0 W/m2 CLR
00:18 -7.3 °C -10.1 °C 34693 hPa SW 11.9 km/h 11.9 km/h 73 % 0 mm 0.0 W/m2 CLR
00:23 -7.3 °C -10.1 °C 34703.1 hPa Calm     73 % 0 mm 0.0 W/m2 CLR
00:28 -7.3 °C -10.1 °C 34703.1 hPa SSW 15 km/h 15 km/h 73 % 0 mm 0.0 W/m2 CLR
00:33 -7.6 °C -10.3 °C 34703.1 hPa SSW 11.9 km/h 11.9 km/h 73 % 0 mm 0.0 W/m2 CLR
00:38 -7.6 °C -10.3 °C 34703.1 hPa SSW 9 km/h 9 km/h 73 % 0 mm 0.0 W/m2 CLR
00:43 -7.6 °C -10.3 °C 34693 hPa SSW 11.9 km/h 11.9 km/h 73 % 0 mm 0.0 W/m2 CLR
00:48 -7.6 °C -10.3 °C 34703.1 hPa SSW 9 km/h 9 km/h 73 % 0 mm 0.0 W/m2 CLR
00:53 -7.6 °C -10.2 °C 34703.1 hPa SSW 20.9 km/h 20.9 km/h 74 % 0 mm 0.0 W/m2 CLR
00:58 -7.6 °C -10.2 °C 34703.1 hPa South 9 km/h 9 km/h 74 % 0 mm 0.0 W/m2 CLR
01:03 -7.6 °C -10.2 °C 34703.1 hPa SSW 9 km/h 9 km/h 74 % 0 mm 0.0 W/m2 CLR
01:08 -7.9 °C -10.5 °C 34703.1 hPa SSW 11.9 km/h 11.9 km/h 74 % 0 mm 0.0 W/m2 CLR
01:13 -7.9 °C -10.5 °C 34703.1 hPa SSW 15 km/h 15 km/h 74 % 0 mm 0.0 W/m2 CLR
01:18 -7.9 °C -10.5 °C 34693 hPa SSW 20.9 km/h 20.9 km/h 74 % 0 mm 0.0 W/m2 CLR
01:23 -7.9 °C -10.5 °C 34693 hPa South 20.9 km/h 20.9 km/h 74 % 0 mm 0.0 W/m2 CLR
01:28 -7.9 °C -10.5 °C 34693 hPa SSW 20.9 km/h 20.9 km/h 74 % 0 mm 0.0 W/m2 CLR
01:33 -7.6 °C -10.2 °C 34693 hPa SSW 15 km/h 15 km/h 74 % 0 mm 0.0 W/m2 CLR
01:38 -7.6 °C -10.1 °C 34693 hPa SSW 18.2 km/h 18.2 km/h 75 % 0 mm 0.0 W/m2 CLR
01:43 -7.6 °C -10.1 °C 34693 hPa South 20.9 km/h 20.9 km/h 75 % 0 mm 0.0 W/m2 CLR
01:48 -7.6 °C -10.1 °C 34693 hPa South 23.8 km/h 23.8 km/h 75 % 0 mm 0.0 W/m2 CLR
01:53 -7.6 °C -10.1 °C 34693 hPa South 20.9 km/h 20.9 km/h 75 % 0 mm 0.0 W/m2 CLR
01:58 -7.6 °C -10.1 °C 34693 hPa South 7.7 km/h 7.7 km/h 75 % 0 mm 0.0 W/m2 CLR
02:03 -7.6 °C -10.1 °C 34693 hPa Calm     75 % 0 mm 0.0 W/m2 CLR
02:08 -7.9 °C -10.4 °C 34693 hPa SSW 15 km/h 15 km/h 75 % 0 mm 0.0 W/m2 CLR
02:13 -7.9 °C -10.4 °C 34693 hPa Calm     75 % 0 mm 0.0 W/m2 CLR
02:18 -8.2 °C -10.7 °C 34693 hPa SSE 9 km/h 9 km/h 75 % 0 mm 0.0 W/m2 CLR
02:23 -8.2 °C -10.7 °C 34693 hPa South 15.6 km/h 15.6 km/h 75 % 0 mm 0.0 W/m2 CLR
02:28 -8.2 °C -10.6 °C 34693 hPa South 11.9 km/h 11.9 km/h 76 % 0 mm 0.0 W/m2 CLR
02:33 -8.2 °C -10.6 °C 34693 hPa South 9 km/h   76 % 0 mm 0.0 W/m2 CLR
02:38 -8.2 °C -10.6 °C 34693 hPa Calm     76 % 0 mm 0.0 W/m2 CLR
02:43 -7.9 °C -10.3 °C 34693 hPa SSE 6 km/h   76 % 0 mm 0.0 W/m2 CLR
02:48 -7.9 °C -10.3 °C 34693 hPa South 9 km/h 9 km/h 76 % 0 mm 0.0 W/m2 CLR
02:53 -7.9 °C -10.3 °C 34693 hPa South 6 km/h 6 km/h 76 % 0 mm 0.0 W/m2 CLR
02:58 -7.9 °C -10.3 °C 34693 hPa Calm   2.1 km/h 76 % 0 mm 0.0 W/m2 CLR
03:03 -7.9 °C -10.3 °C 34693 hPa South 20.9 km/h 20.9 km/h 76 % 0 mm 0.0 W/m2 CLR
03:08 -8.2 °C -10.7 °C 34682.8 hPa South 11.9 km/h 11.9 km/h 75 % 0 mm 0.0 W/m2 CLR
03:13 -7.9 °C -10.4 °C 34693 hPa SSW 17.9 km/h 17.9 km/h 75 % 0 mm 0.0 W/m2 CLR
03:18 -7.9 °C -10.4 °C 34693 hPa South 20.9 km/h 20.9 km/h 75 % 0 mm 0.0 W/m2 CLR
03:23 -7.9 °C -10.4 °C 34682.8 hPa SSW 20.9 km/h 20.9 km/h 75 % 0 mm 0.0 W/m2 CLR
03:33 -7.6 °C -10.1 °C 34682.8 hPa South 20.9 km/h 20.9 km/h 75 % 0 mm 0.0 W/m2 CLR
03:38 -7.6 °C -10.1 °C 34682.8 hPa SSW 26.9 km/h 26.9 km/h 75 % 0 mm 0.0 W/m2 CLR
03:43 -7.6 °C -10.1 °C 34682.8 hPa SSW 17.9 km/h 17.9 km/h 75 % 0 mm 0.0 W/m2 CLR
03:48 -7.6 °C -10.1 °C 34693 hPa SSW 15.6 km/h 15.6 km/h 75 % 0 mm 0.0 W/m2 CLR
03:53 -7.9 °C -10.4 °C 34682.8 hPa SSW 15 km/h 15 km/h 75 % 0 mm 0.0 W/m2 CLR
03:59 -7.9 °C -10.3 °C 34682.8 hPa SSW 20.9 km/h 20.9 km/h 76 % 0 mm 0.0 W/m2 CLR
04:04 -7.9 °C -10.3 °C 34693 hPa SSW 17.9 km/h 17.9 km/h 76 % 0 mm 0.0 W/m2 CLR
04:09 -7.9 °C -10.3 °C 34693 hPa SSW 17.9 km/h 17.9 km/h 76 % 0 mm 0.0 W/m2 CLR
04:14 -7.9 °C -10.3 °C 34682.8 hPa SSW 6 km/h 6 km/h 76 % 0 mm 0.0 W/m2 CLR
04:19 -7.9 °C -10.3 °C 34682.8 hPa SSW 17.9 km/h 17.9 km/h 76 % 0 mm 0.0 W/m2 CLR
04:24 -7.9 °C -10.3 °C 34693 hPa SSW 20.8 km/h 20.8 km/h 76 % 0 mm 0.0 W/m2 CLR
04:29 -7.9 °C -10.3 °C 34682.8 hPa SSW 15 km/h 15 km/h 76 % 0 mm 0.0 W/m2 CLR
04:34 -7.9 °C -10.3 °C 34682.8 hPa SSW 17.9 km/h 17.9 km/h 76 % 0 mm 0.0 W/m2 CLR
04:39 -7.9 °C -10.2 °C 34682.8 hPa SSW 9 km/h 9 km/h 77 % 0 mm 0.0 W/m2 CLR
04:44 -7.9 °C -10.2 °C 34693 hPa Calm     77 % 0 mm 0.0 W/m2 CLR
04:49 -7.9 °C -10.2 °C 34693 hPa SSW 17.9 km/h 17.9 km/h 77 % 0 mm 0.0 W/m2 CLR
04:54 -7.9 °C -10.2 °C 34693 hPa SSW 9 km/h 9 km/h 77 % 0 mm 0.0 W/m2 CLR
04:59 -7.9 °C -10.2 °C 34693 hPa SSW 20.9 km/h 20.9 km/h 77 % 0 mm 0.0 W/m2 CLR
05:04 -7.9 °C -10.2 °C 34693 hPa SSW 23.8 km/h 23.8 km/h 77 % 0 mm 0.0 W/m2 CLR
05:09 -7.9 °C -10.2 °C 34693 hPa South 26.9 km/h 26.9 km/h 77 % 0 mm 0.0 W/m2 CLR
05:14 -7.9 °C -10.2 °C 34682.8 hPa SSW 23.8 km/h 23.8 km/h 77 % 0 mm 0.0 W/m2 CLR
05:19 -7.9 °C -10.2 °C 34682.8 hPa SSW 15.6 km/h 15.6 km/h 77 % 0 mm 0.0 W/m2 CLR
05:23 -7.9 °C -10.2 °C 34682.8 hPa South 17.9 km/h 17.9 km/h 77 % 0 mm 0.0 W/m2 CLR
05:24 -7.9 °C -10.2 °C 34693 hPa SSW 23.8 km/h 23.8 km/h 77 % 0 mm 0.0 W/m2 CLR
05:29 -7.9 °C -10.2 °C 34693 hPa SSW 23.8 km/h 23.8 km/h 77 % 0 mm 0.0 W/m2 CLR
05:32 -7.9 °C -10.3 °C 34693 hPa SSW 26.9 km/h 26.9 km/h 76 % 0 mm 0.0 W/m2 CLR
05:37 -7.6 °C -10 °C 34693 hPa SSW 29.8 km/h 29.8 km/h 76 % 0 mm 0.0 W/m2 CLR
05:42 -7.6 °C -10 °C 34693 hPa South 17.9 km/h 17.9 km/h 76 % 0 mm 0.0 W/m2 CLR
05:47 -7.9 °C -10.3 °C 34693 hPa South 17.9 km/h 17.9 km/h 76 % 0 mm 0.0 W/m2 CLR
05:52 -7.9 °C -10.3 °C 34693 hPa SSW 17.9 km/h 17.9 km/h 76 % 0 mm 0.0 W/m2 CLR
05:57 -7.9 °C -10.3 °C 34693 hPa SSW 26.9 km/h 26.9 km/h 76 % 0 mm 0.0 W/m2 CLR
06:02 -7.6 °C -10 °C 34693 hPa SSW 26.9 km/h 26.9 km/h 76 % 0 mm 0.0 W/m2 CLR
06:07 -7.6 °C -10 °C 34693 hPa SSW 15 km/h 15 km/h 76 % 0 mm 0.0 W/m2 CLR
06:12 -7.6 °C -10 °C 34693 hPa SSW 29.8 km/h 29.8 km/h 76 % 0 mm 0.0 W/m2 CLR
06:17 -7.6 °C -10 °C 34693 hPa SSW 17.9 km/h 17.9 km/h 76 % 0 mm 0.0 W/m2 CLR
06:22 -7.6 °C -10 °C 34693 hPa SSW 20.9 km/h 20.9 km/h 76 % 0 mm 0.0 W/m2 CLR
06:27 -7.9 °C -10.3 °C 34693 hPa SSW 20.8 km/h 20.8 km/h 76 % 0 mm 0.0 W/m2 CLR
06:32 -7.6 °C -10 °C 34693 hPa SSW 18.2 km/h 18.2 km/h 76 % 0 mm 0.0 W/m2 CLR
06:37 -7.6 °C -10 °C 34693 hPa SSW 15 km/h   76 % 0 mm 0.0 W/m2 CLR
06:42 -7.6 °C -10 °C 34693 hPa SSW 17.9 km/h 17.9 km/h 76 % 0 mm 0.0 W/m2 CLR
06:47 -7.6 °C -10 °C 34693 hPa South 15 km/h 15 km/h 76 % 0 mm 0.0 W/m2 CLR
06:57 -7.6 °C -10 °C 34693 hPa Calm     76 % 0 mm 0.0 W/m2 CLR
07:02 -7.6 °C -10 °C 34693 hPa South 32.8 km/h 32.8 km/h 76 % 0 mm 0.0 W/m2 CLR
07:07 -7.6 °C -10.1 °C 34693 hPa SSW 23.8 km/h 23.8 km/h 75 % 0 mm 0.0 W/m2 CLR
07:12 -7.6 °C -10.1 °C 34693 hPa SW 9 km/h 9 km/h 75 % 0 mm 0.0 W/m2 CLR
07:17 -7.6 °C -10.1 °C 34693 hPa SSW 17.9 km/h 17.9 km/h 75 % 0 mm 0.0 W/m2 CLR
07:22 -7.6 °C -10.1 °C 34693 hPa SSW 23.8 km/h 23.8 km/h 75 % 0 mm 0.0 W/m2 CLR
07:27 -7.6 °C -10.1 °C 34693 hPa SSW 23.8 km/h 23.8 km/h 75 % 0 mm 0.0 W/m2 CLR
07:32 -7.6 °C -10.1 °C 34703.1 hPa SSW 18.2 km/h 18.2 km/h 75 % 0 mm 0.0 W/m2 CLR
07:37 -7.6 °C -10.1 °C 34703.1 hPa SW 20.9 km/h 20.9 km/h 75 % 0 mm 0.0 W/m2 CLR
07:42 -7.6 °C -10.1 °C 34703.1 hPa SSW 17.9 km/h 17.9 km/h 75 % 0 mm 0.0 W/m2 CLR
07:47 -7.6 °C -10.1 °C 34703.1 hPa SSW 29.8 km/h 29.8 km/h 75 % 0 mm 0.0 W/m2 OVC
07:53 -7.6 °C -10.1 °C 34703.1 hPa SSW 17.9 km/h 17.9 km/h 75 % 0 mm 0.0 W/m2 OVC
07:58 -7.6 °C -10.1 °C 34703.1 hPa South 18.2 km/h 18.2 km/h 75 % 0 mm 0.0 W/m2 OVC
08:03 -7.6 °C -10.1 °C 34703.1 hPa SSW 20.9 km/h 20.9 km/h 75 % 0 mm 0.0 W/m2 OVC
08:08 -7.6 °C -10.1 °C 34703.1 hPa South 26.9 km/h 26.9 km/h 75 % 0 mm 0.0 W/m2 OVC
08:13 -7.6 °C -10.1 °C 34703.1 hPa South 23.8 km/h 23.8 km/h 75 % 0 mm 5.0 W/m2 OVC
08:18 -7.6 °C -10.1 °C 34703.1 hPa SSW 11.9 km/h 11.9 km/h 75 % 0 mm 7.0 W/m2 BKN
08:19 -7.6 °C -10.1 °C 34703.1 hPa South 3.1 km/h   75 % 0 mm 7.0 W/m2 BKN
08:24 -7.6 °C -10.1 °C 34703.1 hPa SSW 20.9 km/h 20.9 km/h 75 % 0 mm 9.0 W/m2 BKN
08:29 -7.6 °C -10.1 °C 34703.1 hPa South 17.9 km/h 17.9 km/h 75 % 0 mm 16.0 W/m2 BKN
08:34 -7.6 °C -10.1 °C 34703.1 hPa SW 23.8 km/h 23.8 km/h 75 % 0 mm 21.0 W/m2 BKN
08:39 -7.6 °C -10.1 °C 34703.1 hPa Calm     75 % 0 mm 30.0 W/m2 BKN
08:44 -7.6 °C -10.1 °C 34703.1 hPa SSW 15.6 km/h 15.6 km/h 75 % 0 mm 40.0 W/m2 BKN
08:49 -7.6 °C -10.1 °C 34703.1 hPa SSW 23.8 km/h 23.8 km/h 75 % 0 mm 49.0 W/m2 SCT
08:54 -7.6 °C -10.1 °C 34703.1 hPa SSW 18.2 km/h 18.2 km/h 75 % 0 mm 62.0 W/m2 SCT
08:59 -7.3 °C -9.8 °C 34703.1 hPa SSW 17.9 km/h 17.9 km/h 75 % 0 mm 88.0 W/m2 FEW
09:04 -7.3 °C -9.8 °C 34716.7 hPa SSW 26.9 km/h 26.9 km/h 75 % 0 mm 84.0 W/m2 FEW
09:09 -7.3 °C -9.8 °C 34716.7 hPa SW 31.1 km/h 31.1 km/h 75 % 0 mm 109.0 W/m2 CLR
09:14 -7.3 °C -9.8 °C 34716.7 hPa SW 20.9 km/h 20.9 km/h 75 % 0 mm 118.0 W/m2 CLR
09:19 -7.3 °C -9.8 °C 34716.7 hPa SW 15 km/h 15 km/h 75 % 0 mm 114.0 W/m2 CLR
09:24 -7.3 °C -9.8 °C 34716.7 hPa SW 26.9 km/h 26.9 km/h 75 % 0 mm 134.0 W/m2 CLR
09:29 -7.3 °C -9.8 °C 34716.7 hPa SW 17.9 km/h 17.9 km/h 75 % 0 mm 183.0 W/m2 CLR
09:34 -7 °C -9.5 °C 34716.7 hPa SW 26.9 km/h 26.9 km/h 75 % 0 mm 162.0 W/m2 CLR
09:39 -7 °C -9.5 °C 34716.7 hPa WSW 38.8 km/h 38.8 km/h 75 % 0 mm 190.0 W/m2 CLR
09:44 -7 °C -9.5 °C 34726.8 hPa SW 23.8 km/h 23.8 km/h 75 % 0 mm 141.0 W/m2 CLR
09:49 -7 °C -9.5 °C 34726.8 hPa SSW 26.9 km/h 26.9 km/h 75 % 0 mm 156.0 W/m2 CLR
09:54 -7 °C -9.5 °C 34726.8 hPa SW 20.8 km/h 20.8 km/h 75 % 0 mm 137.0 W/m2 CLR
09:59 -7 °C -9.5 °C 34726.8 hPa SW 32.8 km/h 32.8 km/h 75 % 0 mm 118.0 W/m2 CLR
10:04 -7 °C -9.5 °C 34726.8 hPa WSW 15 km/h 15 km/h 75 % 0 mm 139.0 W/m2 CLR
10:09 -7 °C -9.5 °C 34726.8 hPa SW 11.9 km/h 11.9 km/h 75 % 0 mm 200.0 W/m2 CLR
10:14 -7 °C -9.5 °C 34740.4 hPa WSW 23.8 km/h 23.8 km/h 75 % 0 mm 202.0 W/m2 CLR
10:17 -7 °C -9.5 °C 34740.4 hPa SW 23.8 km/h 23.8 km/h 75 % 0 mm 220.0 W/m2 CLR
10:22 -6.7 °C -9.3 °C 34740.4 hPa WSW 29.8 km/h 29.8 km/h 74 % 0 mm 176.0 W/m2 CLR
10:27 -7 °C -9.6 °C 34740.4 hPa SW 29.8 km/h 29.8 km/h 74 % 0 mm 195.0 W/m2 CLR
10:32 -7 °C -9.6 °C 34740.4 hPa SW 32.8 km/h 32.8 km/h 74 % 0 mm 202.0 W/m2 CLR
10:37 -6.7 °C -9.3 °C 34740.4 hPa SSW 11.9 km/h 11.9 km/h 74 % 0 mm 399.0 W/m2 CLR
10:42 -6.7 °C -9.4 °C 34740.4 hPa SW 29.8 km/h 29.8 km/h 73 % 0 mm 220.0 W/m2 CLR
10:47 -6.7 °C -9.4 °C 34740.4 hPa SW 23.8 km/h 23.8 km/h 73 % 0 mm 221.0 W/m2 CLR
10:52 -6.7 °C -9.4 °C 34740.4 hPa SW 23.8 km/h 23.8 km/h 73 % 0 mm 225.0 W/m2 CLR
10:57 -6.7 °C -9.4 °C 34740.4 hPa SSW 35.7 km/h 35.7 km/h 73 % 0 mm 302.0 W/m2 CLR
11:02 -6.3 °C -9.3 °C 34740.4 hPa WSW 15.6 km/h 15.6 km/h 72 % 0 mm 257.0 W/m2 CLR
11:07 -6.3 °C -9.3 °C 34740.4 hPa WSW 23.8 km/h 23.8 km/h 72 % 0 mm 148.0 W/m2 CLR
11:12 -6.3 °C -9.1 °C 34740.4 hPa SW 11.9 km/h 11.9 km/h 73 % 0 mm 283.0 W/m2 CLR
11:17 -6.3 °C -9.3 °C 34740.4 hPa SSW 6 km/h 6 km/h 72 % 0 mm 239.0 W/m2 CLR
11:22 -6.3 °C -9.3 °C 34740.4 hPa SSW 29.8 km/h 29.8 km/h 72 % 0 mm 295.0 W/m2 CLR
11:27 -6.3 °C -9.4 °C 34740.4 hPa SSW 23.8 km/h 23.8 km/h 71 % 0 mm 287.0 W/m2 CLR
11:32 -6.3 °C -9.4 °C 34740.4 hPa SSW 23.8 km/h 23.8 km/h 71 % 0 mm 190.0 W/m2 CLR
11:37 -6.3 °C -9.4 °C 34740.4 hPa SSW 23.8 km/h 23.8 km/h 71 % 0 mm 243.0 W/m2 CLR
11:42 -6.3 °C -9.5 °C 34740.4 hPa South 38.8 km/h 38.8 km/h 70 % 0 mm 243.0 W/m2 CLR
11:47 -6.1 °C -9.2 °C 34740.4 hPa South 35.7 km/h 35.7 km/h 70 % 0 mm 765.0 W/m2 CLR
11:48 -6.1 °C -9.2 °C 34740.4 hPa South 32.8 km/h 32.8 km/h 70 % 0 mm 765.0 W/m2 CLR
11:53 -5.7 °C -9.1 °C 34726.8 hPa SSW 36.2 km/h 36.2 km/h 69 % 0 mm 661.0 W/m2 CLR
11:58 -5.7 °C -9.2 °C 34726.8 hPa South 10.3 km/h 10.3 km/h 68 % 0 mm 195.0 W/m2 CLR
12:03 -5.7 °C -9.2 °C 34726.8 hPa SSW 15 km/h 15 km/h 68 % 0 mm 661.0 W/m2 CLR
12:08 -5.4 °C -9 °C 34726.8 hPa WSW 32.8 km/h 32.8 km/h 67 % 0 mm 677.0 W/m2 CLR
12:13 -5.1 °C -8.8 °C 34726.8 hPa South 18.2 km/h 18.2 km/h 66 % 0 mm 679.0 W/m2 CLR
12:18 -5.1 °C -8.8 °C 34716.7 hPa SSW 29.8 km/h 29.8 km/h 66 % 0 mm 302.0 W/m2 CLR
12:23 -5.4 °C -9.1 °C 34716.7 hPa SSW 11.9 km/h 11.9 km/h 66 % 0 mm 686.0 W/m2 CLR
12:28 -5.1 °C -8.8 °C 34716.7 hPa South 23.8 km/h 23.8 km/h 66 % 0 mm 682.0 W/m2 CLR
12:33 -5.1 °C -8.8 °C 34716.7 hPa South 23.8 km/h 23.8 km/h 66 % 0 mm 599.0 W/m2 CLR
12:38 -4.8 °C -8.7 °C 34716.7 hPa SW 33.6 km/h 33.6 km/h 65 % 0 mm 631.0 W/m2 CLR
12:43 -4.5 °C -8.7 °C 34716.7 hPa SW 26.9 km/h 26.9 km/h 63 % 0 mm 775.0 W/m2 CLR
12:48 -4.8 °C -8.8 °C 34716.7 hPa Calm     64 % 0 mm 176.0 W/m2 CLR
12:53 -4.8 °C -8.8 °C 34716.7 hPa South 2.6 km/h   64 % 0 mm 786.0 W/m2 CLR
12:58 -4.5 °C -8.7 °C 34716.7 hPa WSW 20.9 km/h 20.9 km/h 63 % 0 mm 777.0 W/m2 CLR
13:03 -4.2 °C -8.5 °C 34716.7 hPa SW 7.7 km/h 7.7 km/h 62 % 0 mm 766.0 W/m2 CLR
13:08 -4.2 °C -8.8 °C 34703.1 hPa SSW 26.9 km/h 26.9 km/h 60 % 0 mm 729.0 W/m2 CLR
13:13 -4.2 °C -8.7 °C 34703.1 hPa Calm     61 % 0 mm 816.0 W/m2 CLR
13:14 -3.9 °C -8.2 °C 34703.1 hPa SW 29.8 km/h 29.8 km/h 62 % 0 mm 816.0 W/m2 CLR
13:19 -3.9 °C -8.5 °C 34703.1 hPa South 32.8 km/h 32.8 km/h 60 % 0 mm 167.0 W/m2 CLR
13:24 -4.5 °C -8.8 °C 34716.7 hPa SW 23.8 km/h 23.8 km/h 62 % 0 mm 722.0 W/m2 CLR
13:29 -4.2 °C -8.7 °C 34703.1 hPa Calm     61 % 0 mm 758.0 W/m2 CLR
13:34 -4.5 °C -9.1 °C 34703.1 hPa SW 29.8 km/h 29.8 km/h 60 % 0 mm 258.0 W/m2 CLR
13:39 -4.5 °C -8.9 °C 34703.1 hPa SW 29.8 km/h 29.8 km/h 61 % 0 mm 258.0 W/m2 CLR
13:44 -4.5 °C -8.8 °C 34703.1 hPa SSW 20.9 km/h 20.9 km/h 62 % 0 mm 352.0 W/m2 CLR
13:49 -4.5 °C -8.9 °C 34703.1 hPa WSW 29.8 km/h 29.8 km/h 61 % 0 mm 731.0 W/m2 CLR
13:54 -4.5 °C -9.1 °C 34703.1 hPa WSW 29.8 km/h 29.8 km/h 60 % 0 mm 153.0 W/m2 CLR
13:59 -4.5 °C -9.2 °C 34703.1 hPa West 17.9 km/h 17.9 km/h 59 % 0 mm 223.0 W/m2 CLR
14:04 -4.5 °C -9.2 °C 34703.1 hPa South 23.8 km/h 23.8 km/h 59 % 0 mm 684.0 W/m2 CLR
14:09 -4.2 °C -8.9 °C 34703.1 hPa South 18.2 km/h 18.2 km/h 59 % 0 mm 700.0 W/m2 CLR
14:14 -3.9 °C -8.8 °C 34693 hPa SW 17.9 km/h 17.9 km/h 58 % 0 mm 691.0 W/m2 CLR
14:19 -3.9 °C -8.9 °C 34693 hPa SSW 32.8 km/h 32.8 km/h 57 % 0 mm 701.0 W/m2 CLR
14:24 -3.6 °C -8.7 °C 34693 hPa SSW 17.9 km/h 17.9 km/h 57 % 0 mm 773.0 W/m2 CLR
14:29 -3.6 °C -8.7 °C 34693 hPa South 26.9 km/h 26.9 km/h 57 % 0 mm 766.0 W/m2 CLR
14:34 -3.6 °C -8.8 °C 34693 hPa South 35.7 km/h 35.7 km/h 56 % 0 mm 737.0 W/m2 CLR
14:39 -3.3 °C -8.7 °C 34693 hPa Calm     55 % 0 mm 717.0 W/m2 CLR
14:44 -3.3 °C -8.7 °C 34682.8 hPa SW 29.8 km/h 29.8 km/h 55 % 0 mm 701.0 W/m2 CLR
14:49 -3.3 °C -8.7 °C 34682.8 hPa WSW 28.5 km/h 28.5 km/h 55 % 0 mm 740.0 W/m2 CLR
14:54 -3.6 °C -9 °C 34693 hPa WSW 26.9 km/h 26.9 km/h 55 % 0 mm 668.0 W/m2 CLR
14:59 -3.6 °C -9.1 °C 34682.8 hPa West 23.8 km/h 23.8 km/h 54 % 0 mm 668.0 W/m2 CLR
15:04 -3.6 °C -9.1 °C 34693 hPa Calm     54 % 0 mm 234.0 W/m2 CLR
15:09 -3.6 °C -9.1 °C 34682.8 hPa WSW 29.8 km/h 29.8 km/h 54 % 0 mm 650.0 W/m2 CLR
15:14 -3.6 °C -9.1 °C 34682.8 hPa SSW 17.9 km/h 17.9 km/h 54 % 0 mm 167.0 W/m2 CLR
15:19 -3.9 °C -9.3 °C 34682.8 hPa South 15.6 km/h 15.6 km/h 55 % 0 mm 768.0 W/m2 CLR
15:24 -3.6 °C -9.1 °C 34682.8 hPa South 23.8 km/h 23.8 km/h 54 % 0 mm 737.0 W/m2 CLR
15:29 -3.3 °C -9 °C 34682.8 hPa SW 29.8 km/h 29.8 km/h 53 % 0 mm 689.0 W/m2 CLR
15:34 -2.9 °C -8.9 °C 34669.3 hPa SW 20.9 km/h 20.9 km/h 52 % 0 mm 686.0 W/m2 CLR
15:39 -2.9 °C -9.1 °C 34669.3 hPa South 29.8 km/h 29.8 km/h 51 % 0 mm 677.0 W/m2 CLR
15:44 -2.9 °C -9.1 °C 34669.3 hPa SSE 32.8 km/h 32.8 km/h 51 % 0 mm 654.0 W/m2 CLR
15:49 -2.9 °C -8.9 °C 34669.3 hPa South 9 km/h   52 % 0 mm 679.0 W/m2 CLR
15:54 -2.7 °C -8.8 °C 34669.3 hPa SE 29.8 km/h 29.8 km/h 51 % 0 mm 696.0 W/m2 CLR
15:59 -2.7 °C -8.8 °C 34669.3 hPa SW 15 km/h 15 km/h 51 % 0 mm 708.0 W/m2 CLR
16:04 -2.9 °C -8.9 °C 34669.3 hPa WSW 11.9 km/h 11.9 km/h 52 % 0 mm 731.0 W/m2 CLR
16:09 -3.3 °C -9.3 °C 34669.3 hPa WNW 20.9 km/h 20.9 km/h 51 % 0 mm 169.0 W/m2 CLR
16:14 -3.6 °C -9.5 °C 34669.3 hPa WSW 23.8 km/h 23.8 km/h 52 % 0 mm 276.0 W/m2 CLR
16:19 -3.6 °C -9.3 °C 34659.1 hPa SW 9 km/h 9 km/h 53 % 0 mm 592.0 W/m2 CLR
16:24 -3.3 °C -9 °C 34669.3 hPa West 20.9 km/h 20.9 km/h 53 % 0 mm 538.0 W/m2 CLR
16:29 -3.3 °C -9.2 °C 34659.1 hPa WSW 17.9 km/h 17.9 km/h 52 % 0 mm 258.0 W/m2 CLR
16:34 -3.6 °C -9.3 °C 34659.1 hPa West 9 km/h   53 % 0 mm 98.0 W/m2 CLR
16:39 -3.6 °C -9.3 °C 34659.1 hPa WSW 9 km/h   53 % 0 mm 109.0 W/m2 CLR
16:44 -3.3 °C -8.8 °C 34659.1 hPa Calm     54 % 0 mm 489.0 W/m2 CLR
16:49 -3.6 °C -9.6 °C 34659.1 hPa SW 9 km/h   51 % 0 mm 468.0 W/m2 CLR
16:54 -3.3 °C -9.3 °C 34659.1 hPa Calm     51 % 0 mm 308.0 W/m2 CLR
16:59 -3.3 °C -9.5 °C 34645.6 hPa SSW 10.3 km/h 10.3 km/h 50 % 0 mm 383.0 W/m2 CLR
17:04 -3.3 °C -9.5 °C 34645.6 hPa WSW 26.9 km/h 26.9 km/h 50 % 0 mm 174.0 W/m2 CLR
17:09 -3.6 °C -9.8 °C 34645.6 hPa SW 23.8 km/h 23.8 km/h 50 % 0 mm 276.0 W/m2 CLR
17:14 -3.3 °C -9.5 °C 34645.6 hPa SSW 11.9 km/h 11.9 km/h 50 % 0 mm 352.0 W/m2 CLR
17:19 -3.3 °C -9.3 °C 34645.6 hPa SSW 11.9 km/h 11.9 km/h 51 % 0 mm 390.0 W/m2 CLR
17:20 -3.3 °C -9.3 °C 34645.6 hPa SSW 15 km/h 15 km/h 51 % 0 mm 383.0 W/m2 CLR
17:25 -3.3 °C -9.3 °C 34645.6 hPa SSW 20.8 km/h 20.8 km/h 51 % 0 mm 360.0 W/m2 CLR
17:30 -2.9 °C -9.2 °C 34645.6 hPa Calm     50 % 0 mm 352.0 W/m2 CLR
17:35 -2.9 °C -9.2 °C 34635.4 hPa SSW 25.9 km/h 25.9 km/h 50 % 0 mm 176.0 W/m2 CLR
17:40 -2.9 °C -9.2 °C 34635.4 hPa SSW 17.9 km/h 17.9 km/h 50 % 0 mm 325.0 W/m2 CLR
17:45 -3.3 °C -9.7 °C 34645.6 hPa WSW 11.9 km/h 11.9 km/h 49 % 0 mm 250.0 W/m2 CLR
17:50 -3.3 °C -9.5 °C 34645.6 hPa WSW 12.9 km/h 12.9 km/h 50 % 0 mm 171.0 W/m2 CLR
17:55 -3.3 °C -9.5 °C 34645.6 hPa WSW 6 km/h   50 % 0 mm 151.0 W/m2 CLR
18:00 -3.6 °C -9.6 °C 34645.6 hPa WSW 9 km/h 9 km/h 51 % 0 mm 81.0 W/m2 CLR
18:05 -3.9 °C -9.9 °C 34645.6 hPa SSW 15 km/h 15 km/h 51 % 0 mm 172.0 W/m2 CLR
18:10 -3.9 °C -9.8 °C 34645.6 hPa SW 11.9 km/h 11.9 km/h 52 % 0 mm 167.0 W/m2 CLR
18:15 -3.9 °C -9.8 °C 34645.6 hPa Calm     52 % 0 mm 153.0 W/m2 CLR
18:20 -3.9 °C -9.8 °C 34645.6 hPa Calm     52 % 0 mm 127.0 W/m2 CLR
18:25 -3.9 °C -9.9 °C 34645.6 hPa Calm     51 % 0 mm 134.0 W/m2 CLR
18:30 -4.2 °C -10.2 °C 34645.6 hPa SW 11.9 km/h 11.9 km/h 51 % 0 mm 134.0 W/m2 CLR
18:35 -4.2 °C -10.2 °C 34645.6 hPa Calm     51 % 0 mm 148.0 W/m2 CLR
18:40 -4.2 °C -10.2 °C 34645.6 hPa WSW 9 km/h   51 % 0 mm 127.0 W/m2 CLR
18:45 -3.9 °C -9.9 °C 34645.6 hPa Calm     51 % 0 mm 109.0 W/m2 CLR
18:50 -3.9 °C -9.9 °C 34635.4 hPa SSW 7.7 km/h 7.7 km/h 51 % 0 mm 91.0 W/m2 CLR
18:55 -4.2 °C -10.2 °C 34635.4 hPa SW 20.9 km/h 20.9 km/h 51 % 0 mm 42.0 W/m2 SCT
19:00 -4.2 °C -10.1 °C 34635.4 hPa SW 15 km/h 15 km/h 52 % 0 mm 53.0 W/m2 SCT
19:05 -4.2 °C -9.9 °C 34635.4 hPa Calm     53 % 0 mm 46.0 W/m2 SCT
19:10 -4.5 °C -10.2 °C 34635.4 hPa Calm     53 % 0 mm 37.0 W/m2 BKN
19:15 -4.8 °C -10.4 °C 34635.4 hPa Calm     53 % 0 mm 26.0 W/m2 BKN
19:20 -5.1 °C -10.7 °C 34645.6 hPa Calm     53 % 0 mm 19.0 W/m2 BKN
19:25 -5.4 °C -10.9 °C 34645.6 hPa Calm     54 % 0 mm 14.0 W/m2 BKN
19:30 -5.7 °C -11.2 °C 34645.6 hPa Calm     54 % 0 mm 11.0 W/m2 BKN
19:35 -6.1 °C -11.3 °C 34645.6 hPa Calm     55 % 0 mm 7.0 W/m2 BKN
19:40 -6.3 °C -11.6 °C 34645.6 hPa Calm     55 % 0 mm 5.0 W/m2 OVC
19:45 -6.7 °C -11.7 °C 34645.6 hPa Calm     56 % 0 mm 0.0 W/m2 OVC
19:50 -6.7 °C -11.7 °C 34645.6 hPa Calm     56 % 0 mm 0.0 W/m2 CLR
19:55 -7 °C -11.8 °C 34645.6 hPa Calm     57 % 0 mm 0.0 W/m2 CLR
20:00 -7 °C -11.7 °C 34645.6 hPa Calm     58 % 0 mm 0.0 W/m2 CLR
20:05 -7.3 °C -12 °C 34659.1 hPa Calm     58 % 0 mm 0.0 W/m2 CLR
20:10 -7.3 °C -11.8 °C 34659.1 hPa Calm     59 % 0 mm 0.0 W/m2 CLR
20:15 -7.3 °C -11.8 °C 34645.6 hPa Calm     59 % 0 mm 0.0 W/m2 CLR
20:20 -7.6 °C -12 °C 34659.1 hPa Calm     60 % 0 mm 0.0 W/m2 CLR
20:25 -7.6 °C -12 °C 34659.1 hPa Calm     60 % 0 mm 0.0 W/m2 CLR
20:30 -7.6 °C -11.8 °C 34659.1 hPa Calm     61 % 0 mm 0.0 W/m2 CLR
20:35 -7.6 °C -11.7 °C 34659.1 hPa Calm     62 % 0 mm 0.0 W/m2 CLR
20:40 -7.6 °C -11.7 °C 34659.1 hPa Calm     62 % 0 mm 0.0 W/m2 CLR
20:46 -7.9 °C -11.9 °C 34659.1 hPa Calm     63 % 0 mm 0.0 W/m2 CLR
20:51 -7.9 °C -11.7 °C 34659.1 hPa Calm     64 % 0 mm 0.0 W/m2 CLR
20:56 -7.9 °C -11.6 °C 34669.3 hPa Calm     65 % 0 mm 0.0 W/m2 CLR
21:01 -8.2 °C -11.8 °C 34669.3 hPa Calm     66 % 0 mm 0.0 W/m2 CLR
21:06 -8.2 °C -11.8 °C 34669.3 hPa Calm     66 % 0 mm 0.0 W/m2 CLR
21:11 -8.2 °C -11.6 °C 34669.3 hPa Calm     67 % 0 mm 0.0 W/m2 CLR
21:16 -8.2 °C -11.5 °C 34669.3 hPa Calm     68 % 0 mm 0.0 W/m2 CLR
21:21 -8.2 °C -11.4 °C 34669.3 hPa Calm     69 % 0 mm 0.0 W/m2 CLR
21:26 -8.5 °C -11.7 °C 34669.3 hPa Calm     69 % 0 mm 0.0 W/m2 CLR
21:31 -8.5 °C -11.7 °C 34669.3 hPa Calm     69 % 0 mm 0.0 W/m2 CLR
21:36 -8.5 °C -11.6 °C 34669.3 hPa Calm     70 % 0 mm 0.0 W/m2 CLR
21:41 -8.5 °C -11.6 °C 34669.3 hPa Calm     70 % 0 mm 0.0 W/m2 CLR
21:46 -8.8 °C -11.9 °C 34682.8 hPa Calm     70 % 0 mm 0.0 W/m2 CLR
21:51 -8.8 °C -11.8 °C 34682.8 hPa Calm     71 % 0 mm 0.0 W/m2 CLR
21:56 -8.5 °C -11.4 °C 34682.8 hPa Calm     71 % 0 mm 0.0 W/m2 CLR
22:01 -8.2 °C -11.2 °C 34682.8 hPa Calm     71 % 0 mm 0.0 W/m2 CLR
22:06 -8.2 °C -11.2 °C 34682.8 hPa Calm     71 % 0 mm 0.0 W/m2 CLR
22:11 -8.2 °C -11.2 °C 34682.8 hPa Calm     71 % 0 mm 0.0 W/m2 CLR
22:16 -8.5 °C -11.4 °C 34682.8 hPa Calm     71 % 0 mm 0.0 W/m2 CLR
22:21 -8.5 °C -11.4 °C 34682.8 hPa Calm     71 % 0 mm 0.0 W/m2 CLR
22:26 -8.5 °C -11.4 °C 34682.8 hPa Calm     71 % 0 mm 0.0 W/m2 CLR
22:31 -8.5 °C -11.4 °C 34682.8 hPa Calm     71 % 0 mm 0.0 W/m2 CLR
22:36 -8.5 °C -11.4 °C 34693 hPa Calm     71 % 0 mm 0.0 W/m2 CLR
22:41 -8.5 °C -11.4 °C 34682.8 hPa Calm     71 % 0 mm 0.0 W/m2 CLR
22:46 -8.5 °C -11.3 °C 34693 hPa Calm     72 % 0 mm 0.0 W/m2 CLR
22:51 -8.8 °C -11.5 °C 34682.8 hPa Calm     73 % 0 mm 0.0 W/m2 CLR
22:56 -8.8 °C -11.6 °C 34693 hPa Calm     72 % 0 mm 0.0 W/m2 CLR
23:01 -8.8 °C -11.6 °C 34682.8 hPa Calm     72 % 0 mm 0.0 W/m2 CLR
23:06 -8.8 °C -11.5 °C 34693 hPa Calm     73 % 0 mm 0.0 W/m2 CLR
23:11 -9.1 °C -11.8 °C 34693 hPa Calm     73 % 0 mm 0.0 W/m2 CLR
23:16 -9.1 °C -11.7 °C 34693 hPa Calm     74 % 0 mm 0.0 W/m2 CLR
23:21 -9.1 °C -11.7 °C 34693 hPa Calm     74 % 0 mm 0.0 W/m2 CLR
23:26 -9.4 °C -12 °C 34693 hPa Calm     74 % 0 mm 0.0 W/m2 CLR
23:31 -9.4 °C -11.8 °C 34693 hPa Calm     76 % 0 mm 0.0 W/m2 CLR
23:36 -9.4 °C -11.9 °C 34693 hPa Calm     75 % 0 mm 0.0 W/m2 CLR
23:41 -9.8 °C -12.1 °C 34693 hPa Calm     76 % 0 mm 0.0 W/m2 CLR
23:46 -9.8 °C -12.2 °C 34693 hPa Calm     75 % 0 mm 0.0 W/m2 CLR
23:51 -9.8 °C -12.2 °C 34693 hPa Calm     75 % 0 mm 0.0 W/m2 CLR
23:56 -9.8 °C -12 °C 34693 hPa Calm     77 % 0 mm 0.0 W/m2 CLR
Lo Temps de Massalio
Compliments of Weather Underground - 1.25 mb